Pagina principale
METAR-TAF:

METAR-TAF

Aeroporti :

Belgrado, Serbia

Aeroporto di Belgrado-Nikola Tesla

latitudine: 44-49N, longitudine: 020-17E, altezza: 96 m

Osservazione

Il bollettino è stato emesso 32 minuti fa, alle 20:00 UTC
Vento 4 kt da sud
Temperature 20°C
Umidità 64%
Pressione 1006 hPa
Visibilità 10 km o più
nessuna nube inferiore a 1500 m e nessun cumulonembo

METAR: LYBE 252000Z 19004KT CAVOK 20/13 Q1006 NOSIG

Ora: 22:32 (20:32 UTC)

Previsione

Il bollettino è stato emesso 3 ore e 32 minuti fa, alle 17:00 UTC
Previsione valida dal 25 alle 18 UTC al 26 alle 18 UTC
Vento 6 kt da sud-ovest
Visibilità 10 km o più
nessuna nube inferiore a 1500 m e nessun cumulonembo

TAF: LYBE 251700Z 2518/2618 23006KT CAVOK TX27/2614Z TN15/2603Z

Osservazioni e previsioni meteorologiche di più di 4000 aeroporti (messaggi METAR e TAF).

Le stazioni disponibili sono rappresentate dai dischi gialli e rossi sulla carta.

Puntare il mouse per vedere il nome della stazione.

Clicca sopra per visualizzare le osservazioni e previsioni meteorologiche.

Per cambiare la mappa : fare clic sui pulsanti verdi con una croce nera per ingrandire, il pulsante verde con un trattino per diminuire, o sulla freccia verde per le mappe adiacenti.


METAR-TAF: